Time;durP1;ratioP1;P1;durP2;ratioP2;P2;SDS_P1;SDS_P2;PMS_P1;PMS_P2;Temp;Humidity;BMP_temperature;BMP_pressure;BME280_temperature;BME280_humidity;BME280_pressure;Samples;Min_cycle;Max_cycle;Signal;HPM_P1;HPM_P2
2021/07/30 00:13:54;;;;;;;7.93;3.93;;;;;;;18.91;81.68;99759.70;714926;1202;113560;-81
2021/07/30 00:28:56;;;;;;;16.30;6.63;;;;;;;18.60;83.87;99770.84;714055;1205;113368;-81
2021/07/30 00:43:59;;;;;;;8.30;4.47;;;;;;;18.12;85.32;99761.09;713771;1189;113518;-79
2021/07/30 00:59:03;;;;;;;9.95;5.30;;;;;;;17.74;87.49;99777.39;713890;1201;113648;-79
2021/07/30 01:14:09;;;;;;;12.47;5.67;;;;;;;17.67;88.93;99780.00;713722;1200;113418;-81
2021/07/30 01:29:14;;;;;;;11.88;5.98;;;;;;;17.38;91.25;99780.98;713757;1176;113487;-79
2021/07/30 01:44:17;;;;;;;10.00;5.30;;;;;;;17.34;92.85;99780.58;713998;1206;114475;-79
2021/07/30 01:59:19;;;;;;;12.57;5.87;;;;;;;17.36;94.00;99789.14;713731;1177;113667;-79
2021/07/30 02:14:25;;;;;;;10.23;5.20;;;;;;;17.24;94.09;99788.84;713718;1176;113494;-80
2021/07/30 02:29:28;;;;;;;11.10;6.60;;;;;;;16.79;95.44;99798.78;714006;1200;114398;-80
2021/07/30 02:44:30;;;;;;;7.83;4.80;;;;;;;16.73;95.19;99788.93;714133;1200;113890;-81
2021/07/30 02:59:34;;;;;;;8.18;4.28;;;;;;;16.69;95.54;99787.67;713740;1200;113578;-79
2021/07/30 03:14:38;;;;;;;6.45;4.50;;;;;;;16.56;96.50;99791.83;713895;1203;114063;-79
2021/07/30 03:29:41;;;;;;;9.48;5.05;;;;;;;16.61;95.88;99793.90;713913;1199;114302;-79
2021/07/30 03:44:43;;;;;;;15.53;5.05;;;;;;;16.40;96.72;99802.61;714722;1174;113490;-78
2021/07/30 03:59:45;;;;;;;20.48;5.63;;;;;;;16.73;97.80;99799.53;713792;1200;113535;-80
2021/07/30 04:14:48;;;;;;;12.33;5.17;;;;;;;16.96;97.36;99786.16;714301;1192;113558;-79
2021/07/30 04:29:50;;;;;;;13.07;6.30;;;;;;;17.24;97.06;99801.28;715383;1200;114783;-75
2021/07/30 04:44:52;;;;;;;11.87;6.27;;;;;;;17.43;96.90;99802.45;714363;1200;114563;-76
2021/07/30 04:59:55;;;;;;;10.93;6.88;;;;;;;17.72;97.38;99800.63;714321;1199;115429;-80
2021/07/30 05:14:57;;;;;;;13.70;6.40;;;;;;;18.15;96.45;99805.00;714765;1200;113875;-75
2021/07/30 05:29:59;;;;;;;9.60;5.75;;;;;;;18.77;95.09;99795.21;714496;1188;114618;-75
2021/07/30 05:45:01;;;;;;;8.88;5.08;;;;;;;19.44;91.08;99793.45;714101;1203;114241;-75
2021/07/30 06:00:05;;;;;;;11.08;4.63;;;;;;;20.08;87.04;99799.09;714169;1204;114966;-76
2021/07/30 06:15:07;;;;;;;8.00;3.23;;;;;;;20.68;81.94;99800.70;714213;1176;113985;-74
2021/07/30 06:30:10;;;;;;;5.03;3.47;;;;;;;20.92;77.97;99807.14;714139;1200;113523;-74
2021/07/30 06:45:12;;;;;;;6.88;2.60;;;;;;;21.36;74.38;99804.56;714121;1199;115020;-73
2021/07/30 07:00:15;;;;;;;7.77;2.53;;;;;;;21.85;71.62;99794.08;714232;1205;119669;-72
2021/07/30 07:15:17;;;;;;;11.43;3.43;;;;;;;22.36;69.71;99789.42;714178;1175;113656;-76
2021/07/30 07:30:20;;;;;;;4.88;2.73;;;;;;;23.16;66.66;99786.67;715364;1200;114103;-75
2021/07/30 07:45:22;;;;;;;6.13;3.03;;;;;;;23.64;62.46;99769.60;714721;1199;115083;-76
2021/07/30 08:00:24;;;;;;;5.85;2.43;;;;;;;23.82;56.66;99779.37;714266;1199;114636;-77
2021/07/30 08:15:26;;;;;;;6.25;3.10;;;;;;;24.33;56.75;99757.36;714659;1179;115159;-74
2021/07/30 08:30:29;;;;;;;6.28;2.35;;;;;;;24.59;55.79;99755.97;714314;1204;113938;-77
2021/07/30 08:45:31;;;;;;;7.43;2.40;;;;;;;24.38;54.52;99760.14;714333;1177;113552;-78
2021/07/30 09:00:33;;;;;;;4.03;2.37;;;;;;;24.85;52.60;99751.89;714423;1203;115280;-78
2021/07/30 09:15:35;;;;;;;4.50;1.70;;;;;;;25.22;53.04;99727.25;714166;1199;113651;-77
2021/07/30 09:30:38;;;;;;;9.45;2.70;;;;;;;25.16;50.40;99744.32;714043;1177;114685;-78
2021/07/30 09:45:40;;;;;;;9.47;2.30;;;;;;;25.74;50.59;99725.30;715265;1199;113810;-78
2021/07/30 10:00:44;;;;;;;6.60;2.30;;;;;;;24.75;51.18;99701.56;714650;1200;113653;-76
2021/07/30 10:15:47;;;;;;;4.33;1.83;;;;;;;25.01;49.65;99693.93;714558;1199;113645;-77
2021/07/30 10:31:07;;;;;;;7.25;2.00;;;;;;;25.04;50.67;99671.97;714490;1200;114772;-76
2021/07/30 10:46:13;;;;;;;3.83;1.50;;;;;;;25.43;49.45;99657.76;714553;1200;114274;-81
2021/07/30 11:01:20;;;;;;;6.75;1.85;;;;;;;26.54;47.80;99633.41;715039;1199;114245;-79
2021/07/30 11:16:24;;;;;;;12.35;5.73;;;;;;;26.46;46.87;99626.64;714837;1200;114458;-77
2021/07/30 11:31:26;;;;;;;5.73;1.90;;;;;;;27.00;47.19;99625.70;715324;1199;114463;-79
2021/07/30 11:46:31;;;;;;;8.73;2.57;;;;;;;27.32;46.45;99619.39;714114;1199;115509;-76
2021/07/30 12:01:33;;;;;;;7.25;2.90;;;;;;;27.29;46.10;99606.44;713808;1202;114368;-75
2021/07/30 12:16:36;;;;;;;5.03;1.88;;;;;;;27.69;44.97;99588.84;714167;1200;113528;-77
2021/07/30 12:31:38;;;;;;;7.40;1.87;;;;;;;28.18;45.33;99576.01;714852;1203;115018;-77
2021/07/30 12:46:47;;;;;;;4.95;1.65;;;;;;;28.22;44.23;99563.60;713876;1199;115316;-77
2021/07/30 13:01:50;;;;;;;3.65;2.10;;;;;;;28.30;43.33;99546.88;714006;1200;114186;-74
2021/07/30 13:16:52;;;;;;;4.47;1.77;;;;;;;28.26;43.46;99545.80;714658;1178;113760;-81
2021/07/30 13:31:55;;;;;;;3.83;1.98;;;;;;;28.56;43.44;99522.58;717014;1199;113729;-80
2021/07/30 13:46:57;;;;;;;2.85;1.70;;;;;;;28.46;43.48;99498.32;719423;1200;114397;-80
2021/07/30 14:01:59;;;;;;;5.05;1.83;;;;;;;28.79;43.38;99490.70;715588;1200;114441;-80
2021/07/30 14:17:03;;;;;;;5.00;2.68;;;;;;;28.48;43.15;99488.05;714767;1170;113679;-79
2021/07/30 14:32:06;;;;;;;21.58;12.13;;;;;;;33.17;40.56;99483.34;714736;1200;114472;-76
2021/07/30 14:47:08;;;;;;;10.70;3.13;;;;;;;31.10;39.36;99469.06;714002;1203;115183;-81
2021/07/30 15:02:11;;;;;;;5.60;2.30;;;;;;;29.78;42.37;99462.05;715958;1177;113990;-81
2021/07/30 15:17:15;;;;;;;7.43;2.00;;;;;;;28.47;43.59;99454.09;715780;1199;114496;-80
2021/07/30 15:32:17;;;;;;;8.50;2.50;;;;;;;28.79;43.04;99458.32;714964;1186;113768;-78
2021/07/30 15:47:20;;;;;;;10.07;2.77;;;;;;;28.14;43.84;99461.72;715339;1199;114833;-80
2021/07/30 16:02:22;;;;;;;6.60;2.37;;;;;;;27.76;43.53;99459.27;715421;1202;114440;-78
2021/07/30 16:17:25;;;;;;;4.65;2.05;;;;;;;27.52;43.51;99448.23;714646;1205;114887;-76
2021/07/30 16:32:27;;;;;;;8.88;2.40;;;;;;;27.26;44.65;99456.23;715073;1199;114682;-78
2021/07/30 16:47:29;;;;;;;6.05;2.35;;;;;;;26.99;44.56;99457.24;715638;1200;113652;-76
2021/07/30 17:02:31;;;;;;;5.60;2.83;;;;;;;26.61;45.03;99461.10;714271;1200;114112;-77
2021/07/30 17:17:34;;;;;;;6.40;2.50;;;;;;;26.18;45.98;99453.05;714300;1178;113721;-77
2021/07/30 17:32:36;;;;;;;22.83;8.30;;;;;;;25.91;47.07;99464.66;714222;1202;114783;-77
2021/07/30 17:47:39;;;;;;;7.18;3.78;;;;;;;25.82;47.96;99452.77;714183;1188;114845;-77
2021/07/30 18:02:41;;;;;;;5.18;3.03;;;;;;;25.28;48.87;99443.66;714012;1199;113616;-75
2021/07/30 18:17:44;;;;;;;13.97;4.63;;;;;;;24.95;49.93;99441.96;715068;1200;114261;-76
2021/07/30 18:32:46;;;;;;;12.00;4.53;;;;;;;24.54;51.43;99436.88;714325;1199;113974;-76
2021/07/30 18:47:48;;;;;;;54.83;28.03;;;;;;;23.86;53.64;99452.99;714834;1203;114193;-75
2021/07/30 19:02:51;;;;;;;44.83;26.17;;;;;;;23.13;54.57;99450.09;715195;1200;113833;-77
2021/07/30 19:17:53;;;;;;;20.98;8.63;;;;;;;22.34;55.71;99459.39;715172;1204;113917;-74
2021/07/30 19:32:56;;;;;;;14.28;8.30;;;;;;;21.77;57.25;99464.23;715050;1183;113679;-75
2021/07/30 19:48:00;;;;;;;7.75;3.63;;;;;;;21.48;58.57;99481.05;714763;1200;115513;-77
2021/07/30 20:03:02;;;;;;;25.88;9.28;;;;;;;21.07;60.18;99488.74;715140;1200;114826;-75
2021/07/30 20:18:05;;;;;;;16.83;8.30;;;;;;;20.58;61.96;99494.77;715002;1205;115360;-75
2021/07/30 20:33:08;;;;;;;16.33;6.63;;;;;;;20.21;63.04;99493.89;714459;1177;113785;-75
2021/07/30 20:48:11;;;;;;;15.55;5.55;;;;;;;20.14;64.64;99490.45;714087;1199;114688;-75
2021/07/30 21:03:14;;;;;;;21.95;7.30;;;;;;;19.78;64.81;99487.41;714773;1200;115360;-74
2021/07/30 21:18:17;;;;;;;18.03;8.75;;;;;;;19.39;67.87;99495.41;714973;1182;113801;-75
2021/07/30 21:33:19;;;;;;;14.13;6.70;;;;;;;18.99;68.79;99492.94;715003;1177;113901;-74
2021/07/30 21:48:21;;;;;;;13.55;7.30;;;;;;;18.87;69.97;99497.22;714377;1199;115851;-73
2021/07/30 22:03:23;;;;;;;18.40;8.63;;;;;;;18.61;71.13;99520.17;715490;1185;114758;-75
2021/07/30 22:18:27;;;;;;;14.55;8.23;;;;;;;18.48;72.44;99501.60;717247;1206;113920;-76
2021/07/30 22:33:32;;;;;;;15.25;7.40;;;;;;;18.20;73.82;99502.61;717255;1200;114286;-76
2021/07/30 22:48:34;;;;;;;8.00;4.55;;;;;;;17.79;74.24;99513.17;715350;1181;115914;-79
2021/07/30 23:03:36;;;;;;;11.50;6.68;;;;;;;17.61;74.56;99523.53;714682;1177;113649;-76
2021/07/30 23:18:41;;;;;;;12.25;5.03;;;;;;;17.44;75.85;99515.92;714984;1199;114531;-74
2021/07/30 23:33:43;;;;;;;8.83;5.65;;;;;;;17.02;76.92;99520.43;714350;1178;114311;-76
2021/07/30 23:48:45;;;;;;;8.65;5.30;;;;;;;16.68;78.24;99516.77;714314;1200;114391;-75
